Time;durP1;ratioP1;P1;durP2;ratioP2;P2;SDS_P1;SDS_P2;PMS_P1;PMS_P2;Temp;Humidity;BMP_temperature;BMP_pressure;BME280_temperature;BME280_humidity;BME280_pressure;Samples;Min_cycle;Max_cycle;Signal;HPM_P1;HPM_P2
2023/05/28 00:01:06;;;;;;;20.77;7.60;;;11.40;99.90;;;;;;5039636;28;20409;-76
2023/05/28 00:03:32;;;;;;;17.55;7.15;;;11.50;99.90;;;;;;5041143;28;20932;-76
2023/05/28 00:05:58;;;;;;;19.63;7.78;;;11.40;99.90;;;;;;5043375;28;20429;-75
2023/05/28 00:08:25;;;;;;;23.00;8.65;;;11.30;99.90;;;;;;5043203;28;20453;-76
2023/05/28 00:10:51;;;;;;;24.02;7.85;;;11.40;99.90;;;;;;5047150;28;20432;-76
2023/05/28 00:13:17;;;;;;;20.88;9.73;;;11.30;99.90;;;;;;5030430;28;20423;-76
2023/05/28 00:15:44;;;;;;;21.42;8.60;;;11.20;99.90;;;;;;5046150;28;20421;-74
2023/05/28 00:18:11;;;;;;;18.00;7.70;;;11.30;99.90;;;;;;5046651;28;20928;-77
2023/05/28 00:20:40;;;;;;;18.63;8.68;;;11.50;99.90;;;;;;5047495;28;20413;-72
2023/05/28 00:23:06;;;;;;;19.48;7.20;;;11.30;99.90;;;;;;5047925;28;20421;-75
2023/05/28 00:25:32;;;;;;;18.92;7.78;;;11.60;99.90;;;;;;5049044;28;20467;-77
2023/05/28 00:27:57;;;;;;;16.63;7.28;;;11.60;99.90;;;;;;5047177;28;20432;-77
2023/05/28 00:30:24;;;;;;;18.43;7.53;;;11.60;99.90;;;;;;5049884;28;21014;-77
2023/05/28 00:32:50;;;;;;;21.73;8.18;;;11.40;99.90;;;;;;5048419;28;20762;-75
2023/05/28 00:35:16;;;;;;;16.83;7.35;;;11.30;99.90;;;;;;5049079;28;20416;-77
2023/05/28 00:37:41;;;;;;;18.55;7.90;;;11.30;99.90;;;;;;5048246;28;20417;-76
2023/05/28 00:40:07;;;;;;;14.63;6.80;;;11.50;99.90;;;;;;5049545;28;20712;-77
2023/05/28 00:42:33;;;;;;;22.02;7.80;;;11.40;99.90;;;;;;5048264;28;20417;-77
2023/05/28 00:45:00;;;;;;;17.30;7.35;;;11.40;99.90;;;;;;5049004;28;20436;-77
2023/05/28 00:47:26;;;;;;;22.93;8.80;;;11.30;99.90;;;;;;5048532;28;20465;-73
2023/05/28 00:49:54;;;;;;;19.35;7.63;;;11.30;99.90;;;;;;5049063;28;20464;-76
2023/05/28 00:52:21;;;;;;;18.05;7.43;;;11.40;99.90;;;;;;5040045;28;20418;-76
2023/05/28 00:54:47;;;;;;;18.60;7.65;;;11.50;99.90;;;;;;5031143;28;20433;-76
2023/05/28 00:57:14;;;;;;;20.05;7.72;;;11.40;99.90;;;;;;5039904;28;20413;-77
2023/05/28 00:59:41;;;;;;;16.80;7.93;;;11.40;99.90;;;;;;5049446;28;20502;-76
2023/05/28 01:02:06;;;;;;;21.47;7.90;;;11.50;99.90;;;;;;5040418;28;20847;-77
2023/05/28 01:04:32;;;;;;;20.67;8.57;;;11.30;99.90;;;;;;5043598;28;20425;-76
2023/05/28 01:06:59;;;;;;;19.38;7.63;;;11.30;99.90;;;;;;5110127;22;20794;-76
2023/05/28 01:09:25;;;;;;;21.33;8.60;;;11.20;99.90;;;;;;5026594;28;21177;-74
2023/05/28 01:11:52;;;;;;;23.17;7.97;;;11.20;99.90;;;;;;5027192;28;20411;-77
2023/05/28 01:14:23;;;;;;;18.95;7.47;;;11.30;99.90;;;;;;5033573;28;20794;-78
2023/05/28 01:16:49;;;;;;;23.77;8.77;;;11.30;99.90;;;;;;5038097;28;20768;-77
2023/05/28 01:19:21;;;;;;;21.75;9.15;;;11.20;99.90;;;;;;5028532;28;20442;-75
2023/05/28 01:21:55;;;;;;;27.40;8.75;;;11.10;99.90;;;;;;5043515;28;20479;-75
2023/05/28 01:24:22;;;;;;;21.27;9.32;;;11.30;99.90;;;;;;5033431;28;20838;-75
2023/05/28 01:26:48;;;;;;;23.83;8.27;;;11.20;99.90;;;;;;5033024;28;20434;-74
2023/05/28 01:29:18;;;;;;;22.13;8.80;;;11.00;99.90;;;;;;5013724;28;20437;-75
2023/05/28 01:31:44;;;;;;;23.73;9.25;;;11.00;99.90;;;;;;5044098;28;20790;-76
2023/05/28 01:34:11;;;;;;;19.05;9.48;;;11.10;99.90;;;;;;5032944;28;20425;-76
2023/05/28 01:36:44;;;;;;;20.80;9.13;;;11.10;99.90;;;;;;5046760;28;20420;-75
2023/05/28 01:39:15;;;;;;;20.88;9.73;;;11.20;99.90;;;;;;5049055;28;20417;-76
2023/05/28 01:41:42;;;;;;;20.17;8.45;;;11.00;99.90;;;;;;5033040;28;20456;-75
2023/05/28 01:44:08;;;;;;;19.48;9.85;;;11.10;99.90;;;;;;5030657;28;20440;-75
2023/05/28 01:46:34;;;;;;;21.88;9.68;;;11.10;99.90;;;;;;5048277;28;20396;-75
2023/05/28 01:49:00;;;;;;;23.90;9.07;;;11.10;99.90;;;;;;5043367;28;20958;-77
2023/05/28 01:51:26;;;;;;;20.70;9.73;;;11.20;99.90;;;;;;5015819;28;20432;-76
2023/05/28 01:53:52;;;;;;;19.83;8.43;;;11.20;99.90;;;;;;5036987;28;20547;-76
2023/05/28 01:56:18;;;;;;;22.40;9.83;;;11.10;99.90;;;;;;5030304;28;20467;-76
2023/05/28 01:58:44;;;;;;;20.92;8.90;;;11.10;99.90;;;;;;5036498;28;20925;-73
2023/05/28 02:01:27;;;;;;;27.60;10.90;;;11.00;99.90;;;;;;5015509;28;20467;-75
2023/05/28 02:03:53;;;;;;;25.75;10.05;;;11.10;99.90;;;;;;5027480;28;20414;-77
2023/05/28 02:06:19;;;;;;;22.05;9.55;;;11.10;99.90;;;;;;5035928;28;20429;-76
2023/05/28 02:08:45;;;;;;;22.77;9.83;;;10.90;99.90;;;;;;5047519;28;20429;-76
2023/05/28 02:11:10;;;;;;;17.77;8.10;;;11.00;99.90;;;;;;5027041;28;20505;-77
2023/05/28 02:13:36;;;;;;;20.60;9.30;;;11.10;99.90;;;;;;5027449;28;20434;-77
2023/05/28 02:16:02;;;;;;;20.65;8.65;;;10.90;99.90;;;;;;5027853;28;20419;-77
2023/05/28 02:18:27;;;;;;;20.73;9.35;;;10.90;99.90;;;;;;5027236;28;20419;-77
2023/05/28 02:20:53;;;;;;;21.43;9.30;;;11.10;99.90;;;;;;5033665;28;20425;-76
2023/05/28 02:23:18;;;;;;;22.17;8.67;;;10.90;99.90;;;;;;5042690;28;20428;-78
2023/05/28 02:25:44;;;;;;;22.33;8.80;;;11.00;99.90;;;;;;5046046;28;20419;-78
2023/05/28 02:28:10;;;;;;;22.52;9.75;;;10.90;99.90;;;;;;5043674;28;20453;-77
2023/05/28 02:30:36;;;;;;;23.43;9.37;;;10.80;99.90;;;;;;5023928;28;20431;-77
2023/05/28 02:33:03;;;;;;;20.60;8.80;;;10.90;99.90;;;;;;5031936;28;20525;-74
2023/05/28 02:35:28;;;;;;;20.52;8.88;;;10.90;99.90;;;;;;5027015;28;20573;-77
2023/05/28 02:37:54;;;;;;;20.37;9.73;;;11.00;99.90;;;;;;5040129;28;20502;-76
2023/05/28 02:40:20;;;;;;;21.75;10.30;;;10.90;99.90;;;;;;5041141;28;20893;-77
2023/05/28 02:42:45;;;;;;;23.70;9.75;;;10.70;99.90;;;;;;5042687;28;20484;-74
2023/05/28 02:45:11;;;;;;;20.20;9.27;;;10.80;99.90;;;;;;5045060;28;20439;-74
2023/05/28 02:47:37;;;;;;;23.17;9.13;;;11.00;99.90;;;;;;5046715;28;20631;-76
2023/05/28 02:50:03;;;;;;;19.37;8.20;;;11.00;99.90;;;;;;5035437;28;20561;-73
2023/05/28 02:52:28;;;;;;;27.93;8.93;;;10.70;99.90;;;;;;5024304;28;20453;-77
2023/05/28 02:54:54;;;;;;;21.67;8.23;;;10.90;99.90;;;;;;5031412;28;20810;-77
2023/05/28 02:57:20;;;;;;;26.97;9.50;;;10.90;99.90;;;;;;5031976;28;20419;-77
2023/05/28 02:59:45;;;;;;;21.38;9.98;;;10.90;99.90;;;;;;5025292;28;20427;-77
2023/05/28 03:02:11;;;;;;;17.80;9.07;;;10.80;99.90;;;;;;5025225;28;21200;-76
2023/05/28 03:04:36;;;;;;;19.80;8.98;;;10.70;99.90;;;;;;5032389;28;20437;-76
2023/05/28 03:07:02;;;;;;;20.33;9.57;;;10.80;99.90;;;;;;5045568;28;20418;-78
2023/05/28 03:09:28;;;;;;;22.98;10.23;;;10.80;99.90;;;;;;5040579;28;20429;-77
2023/05/28 03:11:54;;;;;;;19.50;7.90;;;10.80;99.90;;;;;;5040280;28;20423;-77
2023/05/28 03:14:19;;;;;;;19.77;9.00;;;10.80;99.90;;;;;;5026287;28;20418;-78
2023/05/28 03:16:45;;;;;;;16.50;8.40;;;10.70;99.90;;;;;;5026437;28;20410;-74
2023/05/28 03:19:11;;;;;;;20.47;9.00;;;10.90;99.90;;;;;;5027947;28;20437;-77
2023/05/28 03:21:36;;;;;;;19.83;8.93;;;10.80;99.90;;;;;;5040868;28;20503;-77
2023/05/28 03:24:02;;;;;;;22.38;9.70;;;10.60;99.90;;;;;;5025047;28;20441;-77
2023/05/28 03:26:28;;;;;;;22.17;8.82;;;10.80;99.90;;;;;;5032658;28;20941;-76
2023/05/28 03:28:53;;;;;;;23.15;9.48;;;10.70;99.90;;;;;;5042609;28;20456;-76
2023/05/28 03:31:20;;;;;;;18.48;9.68;;;10.80;99.90;;;;;;5029361;28;20424;-77
2023/05/28 03:33:46;;;;;;;21.33;9.57;;;10.60;99.90;;;;;;5026739;28;20434;-76
2023/05/28 03:36:11;;;;;;;20.85;9.32;;;10.70;99.90;;;;;;5042643;28;20789;-77
2023/05/28 03:38:37;;;;;;;22.58;9.57;;;10.50;99.90;;;;;;5043497;28;20906;-74
2023/05/28 03:41:03;;;;;;;20.15;8.65;;;10.60;99.90;;;;;;5024690;28;20427;-77
2023/05/28 03:43:30;;;;;;;19.17;9.70;;;10.60;99.90;;;;;;5024318;28;20805;-77
2023/05/28 03:45:55;;;;;;;20.55;9.32;;;10.60;99.90;;;;;;5038768;28;20429;-77
2023/05/28 03:48:21;;;;;;;22.50;9.40;;;10.70;99.90;;;;;;5045554;28;20466;-76
2023/05/28 03:50:46;;;;;;;25.77;9.63;;;10.90;99.90;;;;;;5030626;28;20415;-77
2023/05/28 03:53:12;;;;;;;22.37;9.23;;;10.90;99.90;;;;;;5033344;28;20472;-78
2023/05/28 03:55:38;;;;;;;24.27;10.77;;;11.00;99.90;;;;;;5045769;28;20437;-76
2023/05/28 03:58:04;;;;;;;20.30;9.17;;;10.90;99.90;;;;;;5043276;28;20869;-77
2023/05/28 04:00:30;;;;;;;21.00;9.20;;;10.80;99.90;;;;;;5025830;28;20483;-76
2023/05/28 04:02:55;;;;;;;23.02;10.45;;;10.60;99.90;;;;;;5024551;28;20513;-75
2023/05/28 04:05:21;;;;;;;20.80;9.50;;;10.80;99.90;;;;;;5030371;28;20836;-77
2023/05/28 04:07:48;;;;;;;17.27;8.93;;;10.70;99.90;;;;;;5046355;28;20417;-76
2023/05/28 04:10:14;;;;;;;19.08;8.35;;;10.60;99.90;;;;;;5034997;28;20434;-78
2023/05/28 04:12:40;;;;;;;20.50;9.07;;;10.80;99.90;;;;;;5032387;28;20780;-76
2023/05/28 04:15:07;;;;;;;20.42;9.57;;;10.80;99.90;;;;;;5045376;28;20459;-77
2023/05/28 04:17:33;;;;;;;17.73;9.63;;;10.70;99.90;;;;;;5033505;28;20427;-74
2023/05/28 04:19:58;;;;;;;19.80;9.15;;;10.90;99.90;;;;;;5021922;28;20424;-76
2023/05/28 04:22:24;;;;;;;24.02;8.63;;;10.90;99.90;;;;;;5037353;28;20484;-75
2023/05/28 04:24:55;;;;;;;16.93;8.30;;;10.80;99.90;;;;;;5032520;28;20425;-73
2023/05/28 04:27:21;;;;;;;20.50;9.57;;;10.80;99.90;;;;;;5046120;28;20424;-75
2023/05/28 04:29:47;;;;;;;20.10;9.02;;;10.70;99.90;;;;;;5009912;28;20952;-76
2023/05/28 04:32:13;;;;;;;19.63;9.60;;;10.90;99.90;;;;;;5019853;28;20423;-75
2023/05/28 04:34:42;;;;;;;20.05;8.95;;;10.80;99.90;;;;;;5025227;28;20485;-77
2023/05/28 04:37:07;;;;;;;17.27;8.90;;;11.00;99.90;;;;;;5043667;28;20520;-74
2023/05/28 04:39:34;;;;;;;21.03;8.83;;;10.90;99.90;;;;;;5039446;28;20449;-77
2023/05/28 04:42:03;;;;;;;23.92;10.02;;;11.00;99.90;;;;;;5025691;28;20427;-76
2023/05/28 04:44:30;;;;;;;16.67;8.43;;;11.00;99.90;;;;;;5043484;28;20835;-75
2023/05/28 04:46:58;;;;;;;22.85;10.35;;;11.00;99.90;;;;;;5045901;28;20771;-75
2023/05/28 04:49:25;;;;;;;26.85;9.68;;;11.10;99.90;;;;;;5040928;28;20447;-78
2023/05/28 04:51:51;;;;;;;22.30;10.77;;;11.10;99.90;;;;;;5037131;28;20413;-77
2023/05/28 04:54:16;;;;;;;19.52;9.73;;;11.20;99.90;;;;;;5026029;28;20460;-75
2023/05/28 04:56:42;;;;;;;19.35;9.23;;;11.00;99.90;;;;;;5049139;28;20433;-74
2023/05/28 04:59:09;;;;;;;17.13;8.63;;;11.10;99.90;;;;;;5045600;28;20547;-78
2023/05/28 05:01:36;;;;;;;17.98;8.20;;;11.00;99.90;;;;;;5038664;28;20455;-76
2023/05/28 05:04:02;;;;;;;17.38;9.38;;;11.30;99.90;;;;;;5039180;28;20436;-76
2023/05/28 05:06:28;;;;;;;19.17;9.10;;;11.20;99.90;;;;;;5031377;28;20913;-77
2023/05/28 05:08:54;;;;;;;18.00;8.97;;;11.40;99.90;;;;;;5047651;28;20472;-76
2023/05/28 05:11:21;;;;;;;19.37;8.70;;;11.60;99.90;;;;;;5028716;28;20573;-76
2023/05/28 05:13:47;;;;;;;19.27;9.45;;;11.40;99.90;;;;;;5031220;28;20787;-75
2023/05/28 05:16:12;;;;;;;19.63;9.93;;;11.30;99.90;;;;;;5038693;28;20409;-76
2023/05/28 05:18:38;;;;;;;23.03;9.97;;;11.30;99.90;;;;;;5048930;28;20783;-76
2023/05/28 05:21:04;;;;;;;17.97;9.07;;;11.30;99.90;;;;;;5033874;28;21043;-75
2023/05/28 05:23:29;;;;;;;25.00;9.47;;;11.50;99.90;;;;;;5033935;28;20433;-75
2023/05/28 05:25:55;;;;;;;19.90;8.23;;;11.60;99.90;;;;;;5043934;28;20409;-76
2023/05/28 05:28:21;;;;;;;15.63;8.10;;;11.50;99.90;;;;;;5048524;28;20509;-76
2023/05/28 05:30:47;;;;;;;18.98;8.85;;;11.80;99.90;;;;;;5016459;28;20422;-76
2023/05/28 05:33:12;;;;;;;19.67;8.70;;;12.00;99.90;;;;;;5038255;28;20417;-75
2023/05/28 05:35:38;;;;;;;16.83;7.60;;;11.80;99.90;;;;;;5045742;28;20429;-78
2023/05/28 05:38:03;;;;;;;15.55;7.65;;;11.80;99.90;;;;;;5043877;28;20836;-76
2023/05/28 05:40:29;;;;;;;16.70;7.33;;;12.00;99.90;;;;;;5027892;28;20915;-77
2023/05/28 05:42:55;;;;;;;18.23;6.83;;;12.10;99.90;;;;;;5036132;28;20569;-75
2023/05/28 05:45:21;;;;;;;17.90;6.57;;;12.30;99.90;;;;;;5038407;28;20542;-76
2023/05/28 05:47:46;;;;;;;16.38;6.93;;;12.30;99.90;;;;;;5049197;28;20444;-75
2023/05/28 05:50:12;;;;;;;14.87;6.33;;;12.50;99.90;;;;;;5036951;28;20892;-74
2023/05/28 05:52:38;;;;;;;15.50;6.72;;;12.60;99.90;;;;;;5025500;28;20430;-75
2023/05/28 05:55:05;;;;;;;18.80;7.93;;;12.50;99.90;;;;;;5034282;28;20558;-76
2023/05/28 05:57:32;;;;;;;17.43;7.57;;;12.60;99.90;;;;;;5048300;28;20413;-78
2023/05/28 05:59:57;;;;;;;16.00;6.88;;;12.60;99.90;;;;;;5030368;28;20443;-77
2023/05/28 06:02:23;;;;;;;15.60;6.95;;;12.70;99.90;;;;;;5029075;28;20423;-77
2023/05/28 06:04:51;;;;;;;18.55;8.88;;;12.70;99.90;;;;;;5031882;28;20931;-79
2023/05/28 06:07:17;;;;;;;12.50;7.30;;;12.90;99.90;;;;;;5035823;28;20433;-73
2023/05/28 06:09:43;;;;;;;15.17;7.13;;;12.80;99.90;;;;;;5040014;28;20933;-76
2023/05/28 06:12:09;;;;;;;16.17;7.27;;;12.90;99.90;;;;;;5015773;28;20968;-76
2023/05/28 06:14:36;;;;;;;15.30;6.78;;;12.90;99.90;;;;;;5030700;28;20429;-76
2023/05/28 06:17:05;;;;;;;18.67;6.40;;;13.00;99.90;;;;;;5019177;28;20427;-78
2023/05/28 06:19:31;;;;;;;15.30;6.85;;;13.10;99.90;;;;;;5029342;28;20429;-77
2023/05/28 06:21:57;;;;;;;14.77;6.20;;;13.20;99.90;;;;;;5031130;28;20435;-78
2023/05/28 06:24:22;;;;;;;12.38;5.95;;;13.30;99.90;;;;;;5027498;28;20466;-77
2023/05/28 06:26:48;;;;;;;14.32;6.22;;;13.30;99.90;;;;;;5016204;28;20457;-77
2023/05/28 06:29:14;;;;;;;13.85;5.88;;;13.30;99.90;;;;;;5014432;28;20463;-74
2023/05/28 06:31:40;;;;;;;14.40;5.90;;;13.60;99.90;;;;;;5027586;28;20411;-76
2023/05/28 06:34:05;;;;;;;16.90;6.63;;;13.70;99.90;;;;;;5027729;28;20828;-75
2023/05/28 06:36:32;;;;;;;16.03;6.17;;;13.70;99.90;;;;;;5026255;28;20427;-76
2023/05/28 06:38:57;;;;;;;15.70;6.30;;;13.80;99.90;;;;;;5028263;28;20446;-77
2023/05/28 06:41:23;;;;;;;15.80;5.60;;;14.00;99.90;;;;;;5010569;28;20415;-76
2023/05/28 06:43:49;;;;;;;11.23;5.75;;;13.90;99.90;;;;;;5027922;28;20438;-77
2023/05/28 06:46:15;;;;;;;14.02;5.68;;;14.00;99.90;;;;;;5047769;28;20421;-76
2023/05/28 06:48:41;;;;;;;14.82;4.82;;;13.90;99.90;;;;;;5047815;28;20445;-76
2023/05/28 06:51:07;;;;;;;15.07;5.60;;;14.10;99.90;;;;;;5024352;28;20881;-77
2023/05/28 06:53:32;;;;;;;13.38;5.43;;;14.40;99.90;;;;;;5028871;28;20417;-75
2023/05/28 06:55:58;;;;;;;12.90;5.68;;;14.40;99.90;;;;;;5045699;28;20425;-76
2023/05/28 06:58:24;;;;;;;14.70;6.53;;;15.00;99.90;;;;;;5029306;28;20460;-77
2023/05/28 07:00:49;;;;;;;13.27;6.10;;;16.10;99.90;;;;;;5037152;28;20907;-74
2023/05/28 07:03:16;;;;;;;13.13;6.00;;;16.80;99.90;;;;;;5021496;28;20428;-77
2023/05/28 07:05:41;;;;;;;15.57;7.03;;;16.70;99.90;;;;;;5026046;28;20416;-77
2023/05/28 07:08:07;;;;;;;11.77;5.50;;;17.50;99.90;;;;;;5046121;28;20436;-76
2023/05/28 07:10:33;;;;;;;13.68;5.05;;;17.00;99.90;;;;;;5021963;28;20484;-75
2023/05/28 07:12:58;;;;;;;13.95;5.55;;;16.90;99.90;;;;;;5017261;28;20424;-76
2023/05/28 07:15:24;;;;;;;10.93;5.50;;;18.30;99.90;;;;;;5021632;28;20430;-73
2023/05/28 07:17:50;;;;;;;11.17;4.97;;;17.00;99.90;;;;;;5027097;28;20415;-77
2023/05/28 07:20:16;;;;;;;14.00;5.95;;;17.40;99.90;;;;;;5015257;28;20456;-76
2023/05/28 07:22:41;;;;;;;14.55;5.82;;;17.40;99.90;;;;;;5032325;28;20487;-76
2023/05/28 07:25:08;;;;;;;10.87;5.10;;;18.50;99.90;;;;;;5030040;28;21275;-77
2023/05/28 07:27:33;;;;;;;10.20;4.97;;;18.70;99.90;;;;;;5030934;28;20415;-77
2023/05/28 07:29:59;;;;;;;12.18;5.78;;;18.50;99.90;;;;;;5026327;28;20429;-78
2023/05/28 07:32:25;;;;;;;10.90;5.10;;;18.40;99.90;;;;;;5025461;28;20917;-77
2023/05/28 07:34:51;;;;;;;13.83;5.40;;;18.30;99.90;;;;;;5026205;28;20434;-76
2023/05/28 07:37:16;;;;;;;8.15;4.53;;;18.40;99.90;;;;;;5025716;28;20434;-80
2023/05/28 07:39:42;;;;;;;8.13;4.40;;;18.00;99.90;;;;;;5024209;28;20431;-76
2023/05/28 07:42:08;;;;;;;7.55;4.40;;;17.80;99.90;;;;;;5024436;28;20423;-76
2023/05/28 07:44:34;;;;;;;6.60;4.30;;;17.40;99.90;;;;;;5034035;28;20960;-77
2023/05/28 07:47:00;;;;;;;10.48;3.90;;;16.90;99.90;;;;;;5033030;28;20766;-75
2023/05/28 07:49:25;;;;;;;10.93;4.90;;;16.80;99.90;;;;;;5025005;28;20438;-78
2023/05/28 07:51:51;;;;;;;9.60;3.97;;;16.80;99.90;;;;;;5026080;28;20965;-75
2023/05/28 07:54:17;;;;;;;7.53;4.05;;;16.70;99.90;;;;;;5024172;28;20849;-78
2023/05/28 07:56:42;;;;;;;9.07;3.95;;;17.30;99.90;;;;;;5012858;28;20430;-80
2023/05/28 07:59:09;;;;;;;9.57;3.93;;;16.90;99.90;;;;;;5030469;28;20431;-76
2023/05/28 08:01:34;;;;;;;7.50;3.90;;;16.90;99.90;;;;;;5029329;28;20434;-79
2023/05/28 08:04:00;;;;;;;9.30;4.70;;;16.70;99.90;;;;;;5023960;28;20419;-80
2023/05/28 08:06:26;;;;;;;9.63;4.82;;;16.70;99.90;;;;;;5015983;28;21120;-79
2023/05/28 08:08:52;;;;;;;7.40;4.72;;;16.60;99.90;;;;;;5032015;28;20843;-79
2023/05/28 08:11:18;;;;;;;11.70;4.60;;;16.30;99.90;;;;;;5022943;28;20423;-75
2023/05/28 08:13:43;;;;;;;9.02;4.95;;;16.70;99.90;;;;;;5021985;28;20423;-80
2023/05/28 08:16:12;;;;;;;6.38;3.67;;;16.70;99.90;;;;;;5026103;28;20434;-75
2023/05/28 08:18:39;;;;;;;8.27;4.63;;;16.90;99.90;;;;;;5026439;28;20439;-78
2023/05/28 08:21:06;;;;;;;8.07;3.75;;;17.10;99.90;;;;;;5024834;28;20510;-76
2023/05/28 08:23:34;;;;;;;7.63;4.38;;;17.40;99.90;;;;;;5026365;28;20403;-75
2023/05/28 08:26:03;;;;;;;8.18;4.50;;;17.30;99.90;;;;;;5025818;28;20794;-80
2023/05/28 08:28:32;;;;;;;8.18;4.25;;;17.50;99.90;;;;;;5025561;28;20437;-80
2023/05/28 08:30:58;;;;;;;7.20;4.28;;;17.50;99.90;;;;;;5027358;28;20798;-77
2023/05/28 08:33:26;;;;;;;6.82;3.65;;;17.60;99.90;;;;;;5028618;28;20417;-77
2023/05/28 08:35:52;;;;;;;6.57;3.70;;;17.70;99.90;;;;;;5028577;28;20940;-81
2023/05/28 08:38:18;;;;;;;7.55;4.30;;;17.40;99.90;;;;;;5037639;28;20413;-75
2023/05/28 08:40:49;;;;;;;11.23;4.80;;;17.60;99.90;;;;;;5041056;28;20446;-77
2023/05/28 08:43:15;;;;;;;8.83;4.70;;;17.50;99.90;;;;;;5030565;28;20429;-77
2023/05/28 08:45:41;;;;;;;6.83;4.50;;;17.60;99.90;;;;;;5029367;28;20490;-75
2023/05/28 08:48:07;;;;;;;7.80;5.03;;;17.70;99.90;;;;;;5028615;28;20426;-78
2023/05/28 08:50:38;;;;;;;8.90;5.13;;;17.40;99.90;;;;;;5029194;28;20469;-75
2023/05/28 08:53:07;;;;;;;8.57;4.53;;;17.60;99.90;;;;;;5030131;28;20414;-78
2023/05/28 08:55:34;;;;;;;7.13;5.13;;;18.00;99.90;;;;;;5028185;28;20844;-76
2023/05/28 08:58:00;;;;;;;10.18;5.53;;;18.10;99.90;;;;;;5030141;28;20471;-77
2023/05/28 09:00:26;;;;;;;9.37;4.73;;;17.90;99.90;;;;;;5025620;28;20435;-77
2023/05/28 09:02:52;;;;;;;9.82;5.07;;;17.90;99.90;;;;;;5028163;28;20431;-75
2023/05/28 09:05:18;;;;;;;10.10;6.05;;;18.10;99.90;;;;;;5028219;28;20426;-76
2023/05/28 09:07:44;;;;;;;9.27;5.37;;;18.40;99.90;;;;;;5023893;28;20432;-76
2023/05/28 09:10:11;;;;;;;9.18;4.82;;;18.00;99.90;;;;;;5031827;28;20521;-76
2023/05/28 09:12:40;;;;;;;9.10;5.10;;;18.20;99.90;;;;;;5029670;28;20426;-76
2023/05/28 09:15:07;;;;;;;9.25;5.35;;;18.00;99.90;;;;;;5037210;28;20426;-76
2023/05/28 09:17:33;;;;;;;7.93;5.10;;;18.40;99.90;;;;;;5039548;28;20434;-77
2023/05/28 09:19:59;;;;;;;8.13;5.13;;;18.60;99.90;;;;;;5029130;28;20483;-75
2023/05/28 09:22:27;;;;;;;10.10;5.17;;;18.70;99.90;;;;;;5028713;28;20912;-78
2023/05/28 09:24:54;;;;;;;10.38;5.97;;;18.60;99.90;;;;;;5027571;28;20411;-76
2023/05/28 09:27:21;;;;;;;9.88;6.68;;;18.30;99.90;;;;;;5019250;28;20415;-76
2023/05/28 09:29:47;;;;;;;8.70;5.73;;;18.40;99.90;;;;;;5043108;28;20437;-76
2023/05/28 09:32:21;;;;;;;10.43;6.47;;;18.50;99.90;;;;;;5039265;28;20430;-75
2023/05/28 09:34:52;;;;;;;10.70;5.88;;;18.60;99.90;;;;;;5043985;28;20435;-75
2023/05/28 09:37:18;;;;;;;9.60;6.82;;;18.90;99.90;;;;;;5026861;28;20422;-76
2023/05/28 09:39:44;;;;;;;10.75;6.45;;;19.00;99.90;;;;;;5029503;28;20502;-75
2023/05/28 09:42:10;;;;;;;10.15;6.85;;;18.90;99.90;;;;;;5028859;28;20434;-77
2023/05/28 09:44:37;;;;;;;11.13;6.95;;;18.70;99.90;;;;;;5038157;28;20417;-76
2023/05/28 09:47:16;;;;;;;11.15;7.18;;;19.10;99.90;;;;;;5032679;28;20416;-76
2023/05/28 09:49:46;;;;;;;9.70;6.80;;;18.70;99.90;;;;;;5029085;28;20458;-76
2023/05/28 09:52:19;;;;;;;10.57;6.97;;;18.80;99.90;;;;;;5030615;28;20473;-75
2023/05/28 09:54:50;;;;;;;15.23;8.00;;;19.10;99.90;;;;;;5042279;28;20478;-66
2023/05/28 09:57:21;;;;;;;11.30;7.28;;;18.90;99.90;;;;;;5038174;28;21168;-76
2023/05/28 09:59:53;;;;;;;10.93;7.35;;;19.10;99.90;;;;;;5029540;28;20446;-75
2023/05/28 10:02:48;;;;;;;11.57;8.05;;;19.50;99.90;;;;;;5025871;28;20625;-76
2023/05/28 10:05:19;;;;;;;10.97;7.67;;;19.30;99.90;;;;;;5025224;28;20425;-77
2023/05/28 10:07:48;;;;;;;11.75;8.73;;;19.30;99.90;;;;;;5028273;28;20420;-76
2023/05/28 10:10:14;;;;;;;14.20;9.95;;;19.20;97.30;;;;;;5027324;28;20426;-75
2023/05/28 10:12:41;;;;;;;11.55;9.18;;;19.30;92.40;;;;;;5035803;28;20530;-74
2023/05/28 10:15:07;;;;;;;11.30;8.73;;;19.00;93.60;;;;;;5028376;28;20466;-77
2023/05/28 10:17:34;;;;;;;12.27;8.15;;;19.60;97.20;;;;;;5042080;28;20464;-77
2023/05/28 10:20:00;;;;;;;12.70;9.18;;;19.20;95.90;;;;;;5046017;28;20417;-77
2023/05/28 10:22:27;;;;;;;11.23;8.00;;;19.50;90.50;;;;;;5039475;28;20430;-78
2023/05/28 10:24:54;;;;;;;9.90;7.03;;;19.10;94.00;;;;;;5038123;28;20441;-78
2023/05/28 10:27:19;;;;;;;12.43;8.68;;;19.60;98.10;;;;;;5040609;28;20991;-79
2023/05/28 10:29:46;;;;;;;9.55;7.97;;;19.60;98.80;;;;;;5028272;28;20463;-79
2023/05/28 10:32:16;;;;;;;9.57;7.60;;;19.50;93.90;;;;;;5027841;28;20453;-77
2023/05/28 10:34:42;;;;;;;11.18;7.57;;;19.30;93.80;;;;;;5025317;28;20454;-75
2023/05/28 10:37:09;;;;;;;10.07;6.83;;;19.30;95.40;;;;;;5029671;28;20848;-77
2023/05/28 10:39:42;;;;;;;10.07;6.65;;;19.20;98.20;;;;;;5026197;28;20504;-77
2023/05/28 10:42:09;;;;;;;7.53;5.13;;;19.50;97.60;;;;;;5027670;28;20422;-75
2023/05/28 10:44:59;;;;;;;7.70;5.95;;;19.80;96.90;;;;;;5026499;28;20437;-76
2023/05/28 10:47:32;;;;;;;8.63;5.85;;;20.00;95.60;;;;;;5044120;28;20486;-75
2023/05/28 10:50:12;;;;;;;8.20;5.03;;;19.90;92.50;;;;;;5037026;28;20447;-75
2023/05/28 10:52:38;;;;;;;7.38;5.05;;;19.80;94.00;;;;;;5028860;28;20931;-76
2023/05/28 10:55:10;;;;;;;5.75;3.75;;;19.90;92.90;;;;;;5026934;28;20414;-74
2023/05/28 10:57:47;;;;;;;7.18;3.85;;;19.60;93.90;;;;;;5039230;28;20425;-77
2023/05/28 11:00:22;;;;;;;7.53;3.37;;;19.70;95.90;;;;;;5026210;28;20430;-78
2023/05/28 11:02:53;;;;;;;7.05;3.88;;;19.60;96.40;;;;;;5032181;28;20508;-74
2023/05/28 11:05:27;;;;;;;6.20;3.00;;;19.60;99.00;;;;;;5036254;28;20413;-74
2023/05/28 11:07:55;;;;;;;6.67;3.33;;;19.60;98.50;;;;;;5046029;28;21087;-75
2023/05/28 11:10:21;;;;;;;7.50;2.78;;;19.70;98.00;;;;;;5026611;28;20998;-76
2023/05/28 11:12:49;;;;;;;6.55;3.67;;;19.50;98.60;;;;;;5018616;28;20428;-73
2023/05/28 11:15:15;;;;;;;5.68;2.38;;;19.40;98.30;;;;;;5012685;28;20423;-77
2023/05/28 11:17:44;;;;;;;9.05;3.50;;;19.50;99.90;;;;;;5028085;28;20768;-75
2023/05/28 11:20:21;;;;;;;7.97;3.00;;;19.90;99.90;;;;;;5015262;28;20431;-75
2023/05/28 11:22:47;;;;;;;7.57;2.80;;;19.90;99.90;;;;;;5022941;28;20487;-73
2023/05/28 11:25:13;;;;;;;9.07;3.53;;;19.70;99.90;;;;;;5024672;28;20428;-76
2023/05/28 11:27:40;;;;;;;7.38;3.17;;;20.20;99.90;;;;;;5026472;28;20442;-75
2023/05/28 11:30:12;;;;;;;7.03;4.00;;;19.90;99.90;;;;;;5020887;28;20578;-76
2023/05/28 11:32:39;;;;;;;7.07;3.20;;;20.00;99.90;;;;;;5025235;28;20442;-76
2023/05/28 11:35:05;;;;;;;10.85;4.53;;;19.90;99.90;;;;;;5022812;28;20441;-75
2023/05/28 11:37:35;;;;;;;9.85;3.53;;;19.90;99.90;;;;;;5022430;28;20514;-76
2023/05/28 11:40:05;;;;;;;7.75;3.35;;;19.80;99.90;;;;;;5022393;28;20429;-75
2023/05/28 11:42:31;;;;;;;8.13;4.25;;;20.40;99.90;;;;;;5023624;28;20419;-78
2023/05/28 11:44:57;;;;;;;6.45;3.40;;;20.10;99.90;;;;;;5025700;28;20482;-77
2023/05/28 11:47:24;;;;;;;10.57;4.18;;;20.20;99.90;;;;;;5026401;28;20426;-74
2023/05/28 11:49:52;;;;;;;8.02;3.78;;;20.20;99.90;;;;;;5007075;28;20775;-77
2023/05/28 11:52:20;;;;;;;8.27;4.00;;;20.00;99.90;;;;;;5023319;28;20529;-75
2023/05/28 11:54:51;;;;;;;8.52;3.90;;;20.20;99.90;;;;;;5022271;28;20419;-77
2023/05/28 11:57:22;;;;;;;10.23;3.95;;;19.60;99.90;;;;;;5006036;28;20404;-76
2023/05/28 12:00:15;;;;;;;10.75;4.35;;;19.80;99.90;;;;;;5016889;28;20442;-75
2023/05/28 12:02:45;;;;;;;9.90;4.13;;;19.40;99.90;;;;;;5022223;28;20971;-80
2023/05/28 12:05:12;;;;;;;10.32;3.90;;;19.70;99.90;;;;;;5021115;28;20925;-81
2023/05/28 12:07:44;;;;;;;9.85;3.97;;;19.80;99.90;;;;;;5025000;28;20512;-77
2023/05/28 12:10:12;;;;;;;9.38;4.00;;;19.70;99.90;;;;;;5038370;28;20441;-80
2023/05/28 12:12:48;;;;;;;12.70;5.30;;;19.40;99.90;;;;;;5026125;28;20407;-80
2023/05/28 12:15:15;;;;;;;9.93;4.45;;;19.60;99.90;;;;;;5026639;28;20403;-82
2023/05/28 12:17:43;;;;;;;9.27;4.10;;;19.30;99.90;;;;;;5024943;28;20419;-77
2023/05/28 12:20:12;;;;;;;13.88;4.55;;;19.40;99.90;;;;;;5021478;28;20477;-76
2023/05/28 12:22:38;;;;;;;11.68;5.53;;;19.40;99.90;;;;;;5018940;28;20436;-74
2023/05/28 12:25:05;;;;;;;14.60;5.43;;;19.60;99.90;;;;;;5027159;28;20534;-80
2023/05/28 12:27:31;;;;;;;9.50;4.35;;;19.30;99.90;;;;;;5023443;28;20465;-79
2023/05/28 12:29:56;;;;;;;10.48;3.90;;;19.50;99.90;;;;;;5027253;28;20493;-79
2023/05/28 12:32:22;;;;;;;11.27;3.93;;;18.90;99.90;;;;;;5026866;28;20418;-78
2023/05/28 12:34:49;;;;;;;9.75;3.97;;;18.80;99.90;;;;;;5010495;28;20432;-77
2023/05/28 12:37:15;;;;;;;11.48;4.80;;;19.00;99.90;;;;;;5029962;28;20430;-79